Grosclose, Virginia
Current Conditions -  °F | °C
As of 1:35 AM on Saturday 25 Oct 2014 (Local Time) from KMKJ Reporting Station
Clear Clear  
Wind Chill: 35°   Ceiling: Unl
Heat Index: 42°   Visibility: 10mi
Dew Point: 37°   Wind: 12mph
Humidity: 82%   Direction: 260°W
Pressure: 30.09"   Gusts: NA
Location:  36.8797°N, 81.2941°W
Report Text: KMKJ 250535Z AUTO 26010KT 10SM CLR 06/03 A3009 RMK AO2 T00550027
Loading
Personal Weather Stations






























Interactive Weather Map
Tropical Storm Tracking
New forecast layout! Learn more

10-Day Weather Forecast

Advertisements
Track Severe Weather on mobile